sensor_id;sensor_type;location;lat;lon;timestamp;temperature;humidity
27922;DHT22;15261;50.356;10.340;2023-02-01T10:43:25;6.30;99.90
27922;DHT22;15261;50.356;10.340;2023-02-01T10:45:51;6.30;99.90
27922;DHT22;15261;50.356;10.340;2023-02-01T10:48:17;6.20;99.90
27922;DHT22;15261;50.356;10.340;2023-02-01T10:50:51;6.10;99.90
27922;DHT22;15261;50.356;10.340;2023-02-01T10:53:25;6.00;99.90
27922;DHT22;15261;50.356;10.340;2023-02-01T10:55:55;6.00;99.90
27922;DHT22;15261;50.356;10.340;2023-02-01T10:58:29;6.00;99.90
27922;DHT22;15261;50.356;10.340;2023-02-01T11:01:02;5.90;99.90
27922;DHT22;15261;50.356;10.340;2023-02-01T11:03:38;5.90;99.90
27922;DHT22;15261;50.356;10.340;2023-02-01T11:06:28;5.80;99.90
27922;DHT22;15261;50.356;10.340;2023-02-01T11:09:18;5.70;99.90
27922;DHT22;15261;50.356;10.340;2023-02-01T11:14:15;5.60;99.90
27922;DHT22;15261;50.356;10.340;2023-02-01T11:16:48;5.60;99.90
27922;DHT22;15261;50.356;10.340;2023-02-01T11:19:15;5.50;99.90
27922;DHT22;15261;50.356;10.340;2023-02-01T11:21:43;5.40;99.90
27922;DHT22;15261;50.356;10.340;2023-02-01T11:24:32;5.40;99.90
27922;DHT22;15261;50.356;10.340;2023-02-01T11:27:01;5.40;99.90
27922;DHT22;15261;50.356;10.340;2023-02-01T11:29:37;5.50;99.90
27922;DHT22;15261;50.356;10.340;2023-02-01T11:32:03;5.50;99.90
27922;DHT22;15261;50.356;10.340;2023-02-01T11:34:44;5.40;99.90
27922;DHT22;15261;50.356;10.340;2023-02-01T11:37:27;5.50;99.90
27922;DHT22;15261;50.356;10.340;2023-02-01T11:43:00;5.40;99.90
27922;DHT22;15261;50.356;10.340;2023-02-01T11:47:52;5.50;99.90
27922;DHT22;15261;50.356;10.340;2023-02-01T11:58:36;5.60;99.90
27922;DHT22;15261;50.356;10.340;2023-02-01T12:01:19;5.70;99.90
27922;DHT22;15261;50.356;10.340;2023-02-01T12:06:53;5.70;99.90
27922;DHT22;15261;50.356;10.340;2023-02-01T12:15:26;5.70;99.90
27922;DHT22;15261;50.356;10.340;2023-02-01T12:36:09;5.60;99.90
27922;DHT22;15261;50.356;10.340;2023-02-01T12:38:52;5.60;99.90
27922;DHT22;15261;50.356;10.340;2023-02-01T12:44:05;5.60;99.90
27922;DHT22;15261;50.356;10.340;2023-02-01T12:46:39;5.70;99.90
27922;DHT22;15261;50.356;10.340;2023-02-01T12:49:17;5.60;99.90
27922;DHT22;15261;50.356;10.340;2023-02-01T12:51:46;5.60;99.90
27922;DHT22;15261;50.356;10.340;2023-02-01T12:54:43;5.70;99.90
27922;DHT22;15261;50.356;10.340;2023-02-01T12:57:17;5.70;99.90
27922;DHT22;15261;50.356;10.340;2023-02-01T13:00:13;5.70;99.90
27922;DHT22;15261;50.356;10.340;2023-02-01T13:02:59;5.80;99.90
27922;DHT22;15261;50.356;10.340;2023-02-01T13:11:31;6.10;99.90
27922;DHT22;15261;50.356;10.340;2023-02-01T13:17:03;6.20;99.90
27922;DHT22;15261;50.356;10.340;2023-02-01T13:19:40;6.30;99.90
27922;DHT22;15261;50.356;10.340;2023-02-01T13:22:10;6.40;99.90
27922;DHT22;15261;50.356;10.340;2023-02-01T13:27:29;6.40;99.90
27922;DHT22;15261;50.356;10.340;2023-02-01T13:30:26;6.30;99.90
27922;DHT22;15261;50.356;10.340;2023-02-01T13:33:27;6.30;99.90
27922;DHT22;15261;50.356;10.340;2023-02-01T13:41:21;6.10;99.90
27922;DHT22;15261;50.356;10.340;2023-02-01T13:43:54;6.00;99.90
27922;DHT22;15261;50.356;10.340;2023-02-01T13:46:20;5.90;99.90
27922;DHT22;15261;50.356;10.340;2023-02-01T13:48:49;5.90;99.90
27922;DHT22;15261;50.356;10.340;2023-02-01T13:51:28;5.90;99.90
27922;DHT22;15261;50.356;10.340;2023-02-01T13:53:55;5.90;99.90
27922;DHT22;15261;50.356;10.340;2023-02-01T14:05:10;6.10;99.90
27922;DHT22;15261;50.356;10.340;2023-02-01T14:07:36;6.10;99.90
27922;DHT22;15261;50.356;10.340;2023-02-01T14:13:13;6.20;99.90
27922;DHT22;15261;50.356;10.340;2023-02-01T14:16:14;6.30;99.90
27922;DHT22;15261;50.356;10.340;2023-02-01T14:21:32;6.20;99.90
27922;DHT22;15261;50.356;10.340;2023-02-01T14:24:02;6.20;99.90
27922;DHT22;15261;50.356;10.340;2023-02-01T14:37:25;5.80;99.90
27922;DHT22;15261;50.356;10.340;2023-02-01T14:40:05;5.80;99.90
27922;DHT22;15261;50.356;10.340;2023-02-01T14:42:49;5.80;99.90
27922;DHT22;15261;50.356;10.340;2023-02-01T15:14:41;5.50;99.90
27922;DHT22;15261;50.356;10.340;2023-02-01T15:17:28;5.50;99.90
27922;DHT22;15261;50.356;10.340;2023-02-01T15:20:27;5.50;99.90
27922;DHT22;15261;50.356;10.340;2023-02-01T15:23:04;5.50;99.90
27922;DHT22;15261;50.356;10.340;2023-02-01T15:25:36;5.50;99.90
27922;DHT22;15261;50.356;10.340;2023-02-01T15:28:02;5.50;99.90
27922;DHT22;15261;50.356;10.340;2023-02-01T15:30:34;5.50;99.90
27922;DHT22;15261;50.356;10.340;2023-02-01T15:33:15;5.50;99.90
27922;DHT22;15261;50.356;10.340;2023-02-01T15:35:42;5.60;99.90
27922;DHT22;15261;50.356;10.340;2023-02-01T15:46:32;5.50;99.90
27922;DHT22;15261;50.356;10.340;2023-02-01T15:48:59;5.50;99.90
27922;DHT22;15261;50.356;10.340;2023-02-01T15:51:29;5.40;99.90
27922;DHT22;15261;50.356;10.340;2023-02-01T15:54:04;5.30;99.90
27922;DHT22;15261;50.356;10.340;2023-02-01T15:56:35;5.20;99.90
27922;DHT22;15261;50.356;10.340;2023-02-01T15:59:02;5.10;99.90
27922;DHT22;15261;50.356;10.340;2023-02-01T16:01:29;5.10;99.90
27922;DHT22;15261;50.356;10.340;2023-02-01T16:04:19;5.00;99.90
27922;DHT22;15261;50.356;10.340;2023-02-01T16:07:01;5.00;99.90
27922;DHT22;15261;50.356;10.340;2023-02-01T16:09:53;5.00;99.90
27922;DHT22;15261;50.356;10.340;2023-02-01T16:12:34;5.00;99.90
27922;DHT22;15261;50.356;10.340;2023-02-01T16:15:01;5.00;99.90
27922;DHT22;15261;50.356;10.340;2023-02-01T16:17:27;5.00;99.90
27922;DHT22;15261;50.356;10.340;2023-02-01T16:19:53;5.00;99.90
27922;DHT22;15261;50.356;10.340;2023-02-01T16:22:18;5.00;99.90
27922;DHT22;15261;50.356;10.340;2023-02-01T16:24:44;5.10;99.90
27922;DHT22;15261;50.356;10.340;2023-02-01T16:27:09;5.00;99.90
27922;DHT22;15261;50.356;10.340;2023-02-01T16:29:35;5.10;99.90
27922;DHT22;15261;50.356;10.340;2023-02-01T16:32:01;5.10;99.90
27922;DHT22;15261;50.356;10.340;2023-02-01T16:34:27;5.20;99.90
27922;DHT22;15261;50.356;10.340;2023-02-01T16:36:52;5.20;99.90
27922;DHT22;15261;50.356;10.340;2023-02-01T16:39:22;5.20;99.90
27922;DHT22;15261;50.356;10.340;2023-02-01T16:41:49;5.20;99.90
27922;DHT22;15261;50.356;10.340;2023-02-01T16:44:14;5.20;99.90
27922;DHT22;15261;50.356;10.340;2023-02-01T16:46:42;5.10;99.90
27922;DHT22;15261;50.356;10.340;2023-02-01T16:49:22;5.10;99.90
27922;DHT22;15261;50.356;10.340;2023-02-01T16:51:54;5.10;99.90
27922;DHT22;15261;50.356;10.340;2023-02-01T16:54:21;5.10;99.90
27922;DHT22;15261;50.356;10.340;2023-02-01T16:56:47;5.00;99.90
27922;DHT22;15261;50.356;10.340;2023-02-01T16:59:12;5.10;99.90
27922;DHT22;15261;50.356;10.340;2023-02-01T17:01:38;5.10;99.90
27922;DHT22;15261;50.356;10.340;2023-02-01T17:04:05;5.00;99.90
27922;DHT22;15261;50.356;10.340;2023-02-01T17:06:31;5.00;99.90
27922;DHT22;15261;50.356;10.340;2023-02-01T17:09:02;5.00;99.90
27922;DHT22;15261;50.356;10.340;2023-02-01T17:11:28;5.00;99.90
27922;DHT22;15261;50.356;10.340;2023-02-01T17:14:04;5.00;99.90
27922;DHT22;15261;50.356;10.340;2023-02-01T17:16:37;5.00;99.90
27922;DHT22;15261;50.356;10.340;2023-02-01T17:19:11;5.00;99.90
27922;DHT22;15261;50.356;10.340;2023-02-01T17:21:44;5.00;99.90
27922;DHT22;15261;50.356;10.340;2023-02-01T17:24:13;5.00;99.90
27922;DHT22;15261;50.356;10.340;2023-02-01T17:26:39;5.00;99.90
27922;DHT22;15261;50.356;10.340;2023-02-01T17:29:05;5.00;99.90
27922;DHT22;15261;50.356;10.340;2023-02-01T17:31:32;5.00;99.90
27922;DHT22;15261;50.356;10.340;2023-02-01T17:33:58;5.00;99.90
27922;DHT22;15261;50.356;10.340;2023-02-01T17:36:23;5.10;99.90
27922;DHT22;15261;50.356;10.340;2023-02-01T17:38:55;5.10;99.90
27922;DHT22;15261;50.356;10.340;2023-02-01T17:41:21;5.20;99.90
27922;DHT22;15261;50.356;10.340;2023-02-01T17:43:47;5.20;99.90
27922;DHT22;15261;50.356;10.340;2023-02-01T17:46:15;5.30;99.90
27922;DHT22;15261;50.356;10.340;2023-02-01T17:48:41;5.30;99.90
27922;DHT22;15261;50.356;10.340;2023-02-01T17:51:18;5.40;99.90
27922;DHT22;15261;50.356;10.340;2023-02-01T17:53:44;5.50;99.90
27922;DHT22;15261;50.356;10.340;2023-02-01T17:56:15;5.50;99.90
27922;DHT22;15261;50.356;10.340;2023-02-01T17:58:56;5.50;99.90
27922;DHT22;15261;50.356;10.340;2023-02-01T18:01:33;5.60;99.90
27922;DHT22;15261;50.356;10.340;2023-02-01T18:03:59;5.60;99.90
27922;DHT22;15261;50.356;10.340;2023-02-01T18:06:25;5.60;99.90
27922;DHT22;15261;50.356;10.340;2023-02-01T18:08:51;5.60;99.90
27922;DHT22;15261;50.356;10.340;2023-02-01T18:11:20;5.70;99.90
27922;DHT22;15261;50.356;10.340;2023-02-01T18:13:49;5.70;99.90
27922;DHT22;15261;50.356;10.340;2023-02-01T18:16:19;5.60;99.90
27922;DHT22;15261;50.356;10.340;2023-02-01T18:18:46;5.70;99.90
27922;DHT22;15261;50.356;10.340;2023-02-01T18:21:12;5.70;99.90
27922;DHT22;15261;50.356;10.340;2023-02-01T18:23:37;5.70;99.90
27922;DHT22;15261;50.356;10.340;2023-02-01T18:26:03;5.70;99.90
27922;DHT22;15261;50.356;10.340;2023-02-01T18:28:29;5.70;99.90
27922;DHT22;15261;50.356;10.340;2023-02-01T18:30:54;5.70;99.90
27922;DHT22;15261;50.356;10.340;2023-02-01T18:33:21;5.70;99.90
27922;DHT22;15261;50.356;10.340;2023-02-01T18:35:47;5.60;99.90
27922;DHT22;15261;50.356;10.340;2023-02-01T18:38:13;5.60;99.90
27922;DHT22;15261;50.356;10.340;2023-02-01T18:40:52;5.60;99.90
27922;DHT22;15261;50.356;10.340;2023-02-01T18:43:18;5.60;99.90
27922;DHT22;15261;50.356;10.340;2023-02-01T18:45:45;5.60;99.90
27922;DHT22;15261;50.356;10.340;2023-02-01T18:48:13;5.60;99.90
27922;DHT22;15261;50.356;10.340;2023-02-01T18:50:41;5.50;99.90
27922;DHT22;15261;50.356;10.340;2023-02-01T18:53:14;5.50;99.90
27922;DHT22;15261;50.356;10.340;2023-02-01T18:55:40;5.50;99.90
27922;DHT22;15261;50.356;10.340;2023-02-01T18:58:07;5.60;99.90
27922;DHT22;15261;50.356;10.340;2023-02-01T19:00:34;5.60;99.90
27922;DHT22;15261;50.356;10.340;2023-02-01T19:03:00;5.60;99.90
27922;DHT22;15261;50.356;10.340;2023-02-01T19:05:26;5.60;99.90
27922;DHT22;15261;50.356;10.340;2023-02-01T19:10:28;5.60;99.90
27922;DHT22;15261;50.356;10.340;2023-02-01T19:12:54;5.60;99.90
27922;DHT22;15261;50.356;10.340;2023-02-01T19:15:20;5.60;99.90
27922;DHT22;15261;50.356;10.340;2023-02-01T19:17:48;5.60;99.90
27922;DHT22;15261;50.356;10.340;2023-02-01T19:20:18;5.60;99.90
27922;DHT22;15261;50.356;10.340;2023-02-01T19:22:44;5.50;99.90
27922;DHT22;15261;50.356;10.340;2023-02-01T19:25:14;5.50;99.90
27922;DHT22;15261;50.356;10.340;2023-02-01T19:27:40;5.50;99.90
27922;DHT22;15261;50.356;10.340;2023-02-01T19:30:06;5.50;99.90
27922;DHT22;15261;50.356;10.340;2023-02-01T19:32:32;5.40;99.90
27922;DHT22;15261;50.356;10.340;2023-02-01T19:34:58;5.40;99.90
27922;DHT22;15261;50.356;10.340;2023-02-01T19:37:23;5.40;99.90
27922;DHT22;15261;50.356;10.340;2023-02-01T19:39:49;5.40;99.90
27922;DHT22;15261;50.356;10.340;2023-02-01T19:42:15;5.30;99.90
27922;DHT22;15261;50.356;10.340;2023-02-01T19:44:40;5.30;99.90
27922;DHT22;15261;50.356;10.340;2023-02-01T19:47:06;5.30;99.90
27922;DHT22;15261;50.356;10.340;2023-02-01T19:49:33;5.20;99.90
27922;DHT22;15261;50.356;10.340;2023-02-01T19:51:59;5.20;99.90
27922;DHT22;15261;50.356;10.340;2023-02-01T19:54:24;5.20;99.90
27922;DHT22;15261;50.356;10.340;2023-02-01T19:56:50;5.10;99.90
27922;DHT22;15261;50.356;10.340;2023-02-01T19:59:16;5.10;99.90
27922;DHT22;15261;50.356;10.340;2023-02-01T20:01:42;5.20;99.90
27922;DHT22;15261;50.356;10.340;2023-02-01T20:04:14;5.20;99.90
27922;DHT22;15261;50.356;10.340;2023-02-01T20:06:42;5.20;99.90
27922;DHT22;15261;50.356;10.340;2023-02-01T20:09:17;5.30;99.90
27922;DHT22;15261;50.356;10.340;2023-02-01T20:11:43;5.30;99.90
27922;DHT22;15261;50.356;10.340;2023-02-01T20:14:09;5.30;99.90
27922;DHT22;15261;50.356;10.340;2023-02-01T20:16:34;5.20;99.90
27922;DHT22;15261;50.356;10.340;2023-02-01T20:19:00;5.10;99.90
27922;DHT22;15261;50.356;10.340;2023-02-01T20:21:25;5.00;99.90
27922;DHT22;15261;50.356;10.340;2023-02-01T20:23:51;5.00;99.90
27922;DHT22;15261;50.356;10.340;2023-02-01T20:26:17;4.90;99.90
27922;DHT22;15261;50.356;10.340;2023-02-01T20:28:45;4.80;99.90
27922;DHT22;15261;50.356;10.340;2023-02-01T20:31:11;4.80;99.90
27922;DHT22;15261;50.356;10.340;2023-02-01T20:33:36;4.80;99.90
27922;DHT22;15261;50.356;10.340;2023-02-01T20:36:02;4.70;99.90
27922;DHT22;15261;50.356;10.340;2023-02-01T20:38:28;4.70;99.90
27922;DHT22;15261;50.356;10.340;2023-02-01T20:41:04;4.60;99.90
27922;DHT22;15261;50.356;10.340;2023-02-01T20:43:30;4.70;99.90
27922;DHT22;15261;50.356;10.340;2023-02-01T20:45:55;4.70;99.90
27922;DHT22;15261;50.356;10.340;2023-02-01T20:48:21;4.70;99.90
27922;DHT22;15261;50.356;10.340;2023-02-01T20:50:47;4.70;99.90
27922;DHT22;15261;50.356;10.340;2023-02-01T20:53:16;4.80;99.90
27922;DHT22;15261;50.356;10.340;2023-02-01T20:55:42;4.80;99.90
27922;DHT22;15261;50.356;10.340;2023-02-01T20:58:07;4.70;99.90
27922;DHT22;15261;50.356;10.340;2023-02-01T21:00:33;4.50;99.90
27922;DHT22;15261;50.356;10.340;2023-02-01T21:02:58;4.40;99.90
27922;DHT22;15261;50.356;10.340;2023-02-01T21:05:24;4.30;99.90
27922;DHT22;15261;50.356;10.340;2023-02-01T21:07:50;4.30;99.90
27922;DHT22;15261;50.356;10.340;2023-02-01T21:10:15;4.30;99.90
27922;DHT22;15261;50.356;10.340;2023-02-01T21:12:41;4.30;99.90
27922;DHT22;15261;50.356;10.340;2023-02-01T21:15:07;4.30;99.90
27922;DHT22;15261;50.356;10.340;2023-02-01T21:17:32;4.30;99.90
27922;DHT22;15261;50.356;10.340;2023-02-01T21:19:58;4.00;99.90
27922;DHT22;15261;50.356;10.340;2023-02-01T21:25:26;3.90;99.90
27922;DHT22;15261;50.356;10.340;2023-02-01T21:27:52;3.90;99.90
27922;DHT22;15261;50.356;10.340;2023-02-01T21:30:17;3.90;99.90
27922;DHT22;15261;50.356;10.340;2023-02-01T21:32:43;3.90;99.90
27922;DHT22;15261;50.356;10.340;2023-02-01T21:35:08;3.90;99.90
27922;DHT22;15261;50.356;10.340;2023-02-01T21:37:34;3.90;99.90
27922;DHT22;15261;50.356;10.340;2023-02-01T21:39:59;3.80;99.90
27922;DHT22;15261;50.356;10.340;2023-02-01T21:42:25;3.80;99.90
27922;DHT22;15261;50.356;10.340;2023-02-01T21:44:51;3.80;99.90
27922;DHT22;15261;50.356;10.340;2023-02-01T21:47:19;3.80;99.90
27922;DHT22;15261;50.356;10.340;2023-02-01T21:49:46;3.70;99.90
27922;DHT22;15261;50.356;10.340;2023-02-01T21:52:13;3.80;99.90
27922;DHT22;15261;50.356;10.340;2023-02-01T21:54:39;3.70;99.90
27922;DHT22;15261;50.356;10.340;2023-02-01T21:57:05;3.70;99.90
27922;DHT22;15261;50.356;10.340;2023-02-01T21:59:40;3.70;99.90
27922;DHT22;15261;50.356;10.340;2023-02-01T22:02:13;3.70;99.90
27922;DHT22;15261;50.356;10.340;2023-02-01T22:04:39;3.70;99.90
27922;DHT22;15261;50.356;10.340;2023-02-01T22:07:04;3.70;99.90
27922;DHT22;15261;50.356;10.340;2023-02-01T22:09:30;3.70;99.90
27922;DHT22;15261;50.356;10.340;2023-02-01T22:11:56;3.70;99.90
27922;DHT22;15261;50.356;10.340;2023-02-01T22:14:22;3.70;99.90
27922;DHT22;15261;50.356;10.340;2023-02-01T22:16:48;3.70;99.90
27922;DHT22;15261;50.356;10.340;2023-02-01T22:19:14;3.80;99.90
27922;DHT22;15261;50.356;10.340;2023-02-01T22:21:41;3.80;99.90
27922;DHT22;15261;50.356;10.340;2023-02-01T22:24:08;3.90;99.90
27922;DHT22;15261;50.356;10.340;2023-02-01T22:26:34;4.00;99.90
27922;DHT22;15261;50.356;10.340;2023-02-01T22:29:00;4.00;99.90
27922;DHT22;15261;50.356;10.340;2023-02-01T22:31:26;4.10;99.90
27922;DHT22;15261;50.356;10.340;2023-02-01T22:33:51;4.10;99.90
27922;DHT22;15261;50.356;10.340;2023-02-01T22:36:17;4.10;99.90
27922;DHT22;15261;50.356;10.340;2023-02-01T22:41:56;4.10;99.90
27922;DHT22;15261;50.356;10.340;2023-02-01T22:44:23;4.10;99.90
27922;DHT22;15261;50.356;10.340;2023-02-01T22:46:53;4.10;99.90
27922;DHT22;15261;50.356;10.340;2023-02-01T22:49:19;4.10;99.90
27922;DHT22;15261;50.356;10.340;2023-02-01T22:51:44;4.10;99.90
27922;DHT22;15261;50.356;10.340;2023-02-01T22:54:19;4.10;99.90
27922;DHT22;15261;50.356;10.340;2023-02-01T22:59:44;4.10;99.90
27922;DHT22;15261;50.356;10.340;2023-02-01T23:02:10;4.10;99.90
27922;DHT22;15261;50.356;10.340;2023-02-01T23:04:36;4.00;99.90
27922;DHT22;15261;50.356;10.340;2023-02-01T23:07:01;4.00;99.90
27922;DHT22;15261;50.356;10.340;2023-02-01T23:09:27;4.00;99.90
27922;DHT22;15261;50.356;10.340;2023-02-01T23:11:53;3.90;99.90
27922;DHT22;15261;50.356;10.340;2023-02-01T23:14:19;3.90;99.90
27922;DHT22;15261;50.356;10.340;2023-02-01T23:16:47;3.90;99.90
27922;DHT22;15261;50.356;10.340;2023-02-01T23:19:14;3.80;99.90
27922;DHT22;15261;50.356;10.340;2023-02-01T23:21:39;3.90;99.90
27922;DHT22;15261;50.356;10.340;2023-02-01T23:24:06;3.90;99.90
27922;DHT22;15261;50.356;10.340;2023-02-01T23:26:33;3.90;99.90
27922;DHT22;15261;50.356;10.340;2023-02-01T23:29:00;3.90;99.90
27922;DHT22;15261;50.356;10.340;2023-02-01T23:31:28;3.90;99.90
27922;DHT22;15261;50.356;10.340;2023-02-01T23:33:55;3.80;99.90
27922;DHT22;15261;50.356;10.340;2023-02-01T23:36:23;3.70;99.90
27922;DHT22;15261;50.356;10.340;2023-02-01T23:38:49;3.70;99.90
27922;DHT22;15261;50.356;10.340;2023-02-01T23:41:16;3.60;99.90
27922;DHT22;15261;50.356;10.340;2023-02-01T23:43:42;3.60;99.90
27922;DHT22;15261;50.356;10.340;2023-02-01T23:46:35;3.60;99.90
27922;DHT22;15261;50.356;10.340;2023-02-01T23:49:02;3.60;99.90
27922;DHT22;15261;50.356;10.340;2023-02-01T23:51:29;3.60;99.90
27922;DHT22;15261;50.356;10.340;2023-02-01T23:53:55;3.60;99.90
27922;DHT22;15261;50.356;10.340;2023-02-01T23:56:24;3.70;99.90
27922;DHT22;15261;50.356;10.340;2023-02-01T23:58:51;3.70;99.90
